Wednesday, December 19, 2018, 10:48 AM EST
Back to Local

KSYR, Syracuse Hancock International Airport

Location: Syracuse, NY, United States Lat: 43.117
Local Time: 10:48 AM EST (15:48 GMT) Lon: -76.1
Time Zone: US/Eastern Elev: 410 ft

Show me the last for .
Show Decoded

2018-12-19 09:54 METAR KSYR 191454Z 09004KT 10SM FEW180 SCT220 BKN250 M03/M08 A3010 RMK AO2
                 SLP194 T10331078 55001 =
2018-12-19 08:54 METAR KSYR 191354Z 10005KT 10SM FEW180 SCT220 BKN250 M06/M09 A3009 RMK AO2
                 SLP193 T10611089 =
2018-12-19 07:54 METAR KSYR 191254Z 10005KT 10SM FEW180 FEW200 BKN250 M08/M10 A3009 RMK AO2
                 SLP194 T10781100 =
2018-12-19 06:54 METAR KSYR 191154Z 13004KT 10SM FEW200 SCT250 M08/M10 A3010 RMK AO2 SLP196 4/001
                 T10781100 11050 21083 58004 =
2018-12-19 05:54 METAR KSYR 191054Z 13004KT 10SM FEW220 SCT250 M07/M10 A3011 RMK AO2 SLP200
                 T10721100 =
2018-12-19 04:54 METAR KSYR 190954Z 14004KT 10SM FEW025 SCT220 SCT250 M07/M09 A3011 RMK AO2
                 SLP200 T10671094 =
2018-12-19 03:54 METAR KSYR 190854Z 12004KT 10SM FEW024 SCT220 M07/M09 A3011 RMK AO2 SLP200
                 T10721094 58005 =
2018-12-19 02:54 METAR KSYR 190754Z 15003KT 10SM FEW024 M07/M09 A3013 RMK AO2 SLP208 T10671089 =
2018-12-19 01:54 METAR KSYR 190654Z 00000KT 10SM FEW027 M06/M09 A3012 RMK AO2 SLP204 T10611089 =
2018-12-19 01:20 METAR KSYR 190620Z 20003KT 10SM SCT026 M06/M09 A3012 RMK AO2 T10561089 =
2018-12-19 00:54 METAR KSYR 190554Z 22004KT 10SM BKN026 M05/M09 A3012 RMK AO2 SLP205 4/001
                 T10501089 11044 21050 56018 =
2018-12-18 23:54 METAR KSYR 190454Z 23006KT 10SM OVC028 M04/M08 A3014 RMK AO2 SLP209 OVC V BKN
                 T10441083 410391067 =
2018-12-18 22:54 METAR KSYR 190354Z 22003KT 10SM OVC026 M04/M08 A3016 RMK AO2 SLP216 T10441083 =
2018-12-18 21:54 METAR KSYR 190254Z 22005KT 10SM OVC026 M04/M08 A3018 RMK AO2 SLP223 T10441083
                 57008 =
2018-12-18 20:54 METAR KSYR 190154Z 25004KT 10SM OVC026 M04/M09 A3018 RMK AO2 SLP224 T10441089 =
2018-12-18 19:54 METAR KSYR 190054Z 27007KT 10SM OVC027 M04/M09 A3020 RMK AO2 SLP229 T10441094 =
2018-12-18 19:29 METAR KSYR 190029Z 26006KT 10SM OVC027 M05/M09 A3020 RMK AO2 T10501089 =
2018-12-18 18:54 METAR KSYR 182354Z 27006KT 10SM OVC030 M05/M09 A3020 RMK AO2 SLP230 4/001 60000
                 T10501094 11050 21061 53001 =
2018-12-18 17:54 METAR KSYR 182254Z 26006KT 10SM OVC030 M06/M09 A3020 RMK AO2 SLP229 T10561094 =
2018-12-18 16:54 METAR KSYR 182154Z 30008KT 10SM OVC030 M06/M10 A3020 RMK AO2 SNE2057 SLP229
                 P0000 T10561100 =
2018-12-18 15:54 METAR KSYR 182054Z 29009KT 9SM -SN FEW023 OVC030 M06/M11 A3020 RMK AO2 SLP229
                 P0000 60000 T10561106 53010 =
2018-12-18 14:54 METAR KSYR 181954Z 30008KT 9SM -SN SCT027 BKN035 M06/M10 A3018 RMK AO2 SLP223
                 BKN V OVC PCPN VRY LGT P0000 T10611100 =
2018-12-18 14:15 METAR KSYR 181915Z 30011KT 9SM -SN FEW024 SCT029 OVC034 M06/M10 A3018 RMK AO2
                 PCPN VRY LGT P0000 T10561100 =
2018-12-18 13:54 METAR KSYR 181854Z 31013KT 4SM -SN BKN025 OVC033 M06/M10 A3018 RMK AO2 SLP222
                 P0000 T10611100 =
2018-12-18 13:08 METAR KSYR 181808Z 30012KT 9SM -SN FEW018 SCT026 BKN035 M06/M11 A3017 RMK AO2
                 BKN V OVC PCPN VRY LGT P0000 T10611106 =
2018-12-18 12:54 METAR KSYR 181754Z 32009KT 4SM -SN FEW018 BKN026 OVC035 M06/M10 A3017 RMK AO2
                 SLP219 4/001 P0000 60000 T10611100 11056 21067 56008 =
2018-12-18 12:30 METAR KSYR 181730Z 31008KT 3SM -SN FEW018 BKN026 OVC035 M06/M09 A3017 RMK AO2
                 P0000 T10611094 =
2018-12-18 12:04 METAR KSYR 181704Z 34010KT 1 1/2SM -SN FEW018 BKN028 OVC036 M06/M09 A3017 RMK
                 AO2 P0000 T10611094 =
2018-12-18 11:54 METAR KSYR 181654Z 34011KT 2 1/2SM -SN FEW019 BKN030 OVC038 M06/M09 A3018 RMK
                 AO2 SLP221 VIS 2V3 P0000 T10611094 =
2018-12-18 11:26 METAR KSYR 181626Z 33008KT 5SM -SN BKN028 OVC036 M06/M09 A3018 RMK AO2 P0000
                 T10611094 =
2018-12-18 11:05 METAR KSYR 181605Z 32009KT 2 1/2SM -SN FEW020 BKN028 OVC038 M06/M09 A3019 RMK
                 AO2 VIS 2V3 P0000 T10611094 =
2018-12-18 10:54 METAR KSYR 181554Z 35005KT 5SM -SN FEW023 BKN030 OVC038 M06/M10 A3018 RMK AO2
                 SLP224 P0000 T10611100 =

Support USWX by starting your Amazon purchase here.